Time,TemperatureF,DewpointF,PressureIn,WindDirection,WindDirectionDegrees,WindSpeedMPH,WindSpeedGustMPH,Humidity,HourlyPrecipIn,Conditions,Clouds,dailyrainin,SoftwareType,DateUTC
2013-03-24 00:00:00,40.9,30.0,29.75,East,90,1.0,9.0,65,0.00,,,-99.99,WeatherLink 5.6,2013-03-24 04:00:00,
2013-03-24 00:30:00,40.5,30.0,29.73,ESE,112,1.0,6.0,66,0.00,,,-99.99,WeatherLink 5.6,2013-03-24 04:30:00,
2013-03-24 01:00:00,40.4,29.6,29.71,ESE,112,2.0,11.0,65,0.00,,,-99.99,WeatherLink 5.6,2013-03-24 05:00:00,
2013-03-24 01:30:00,40.4,29.6,29.69,SE,135,5.0,12.0,65,0.00,,,-99.99,WeatherLink 5.6,2013-03-24 05:30:00,
2013-03-24 02:00:00,40.7,30.2,29.68,ESE,112,3.0,11.0,66,0.00,,,-99.99,WeatherLink 5.6,2013-03-24 06:00:00,
2013-03-24 02:30:00,41.1,31.0,29.67,ESE,112,4.0,12.0,67,0.00,,,-99.99,WeatherLink 5.6,2013-03-24 06:30:00,
2013-03-24 03:00:00,41.7,31.9,29.70,SE,135,4.0,11.0,68,0.00,,,-99.99,WeatherLink 5.6,2013-03-24 07:00:00,
2013-03-24 03:30:00,40.9,31.1,29.69,SSE,157,6.0,13.0,68,0.00,,,-99.99,WeatherLink 5.6,2013-03-24 07:30:00,
2013-03-24 04:00:00,40.8,32.1,29.67,SE,135,7.0,16.0,71,0.00,,,-99.99,WeatherLink 5.6,2013-03-24 08:00:00,
2013-03-24 04:30:00,41.9,33.2,29.62,SSE,157,11.0,27.0,71,0.00,,,-99.99,WeatherLink 5.6,2013-03-24 08:30:00,
2013-03-24 05:00:00,43.0,33.5,29.59,SSE,157,14.0,29.0,69,0.00,,,-99.99,WeatherLink 5.6,2013-03-24 09:00:00,
2013-03-24 05:20:00,43.4,33.9,29.56,SSE,157,15.0,31.0,69,0.00,,,-99.99,WeatherLink 5.6,2013-03-24 09:20:00,
2013-03-24 05:40:00,41.4,35.4,29.58,South,180,11.0,23.0,79,0.01,,,-99.99,WeatherLink 5.6,2013-03-24 09:40:00,
2013-03-24 06:10:00,40.1,36.8,29.58,South,180,7.0,21.0,88,0.04,,,-99.99,WeatherLink 5.6,2013-03-24 10:10:00,
2013-03-24 06:40:00,39.1,36.4,29.57,SSE,157,4.0,13.0,90,0.05,,,-99.99,WeatherLink 5.6,2013-03-24 10:40:00,
2013-03-24 07:10:00,38.8,36.7,29.56,SE,135,3.0,12.0,92,0.04,,,-99.99,WeatherLink 5.6,2013-03-24 11:10:00,
2013-03-24 07:40:00,39.0,37.1,29.56,SE,135,3.0,12.0,93,0.05,,,-99.99,WeatherLink 5.6,2013-03-24 11:40:00,
2013-03-24 08:10:00,38.8,37.2,29.55,SE,135,6.0,16.0,94,0.07,,,-99.99,WeatherLink 5.6,2013-03-24 12:10:00,
2013-03-24 08:40:00,39.2,37.6,29.54,SE,135,8.0,17.0,94,0.09,,,-99.99,WeatherLink 5.6,2013-03-24 12:40:00,
2013-03-24 09:10:00,38.9,37.3,29.53,SE,135,11.0,21.0,94,0.08,,,-99.99,WeatherLink 5.6,2013-03-24 13:10:00,
2013-03-24 09:40:00,38.5,36.9,29.53,SE,135,9.0,17.0,94,0.07,,,-99.99,WeatherLink 5.6,2013-03-24 13:40:00,
2013-03-24 10:10:00,38.3,36.7,29.50,SE,135,7.0,16.0,94,0.06,,,-99.99,WeatherLink 5.6,2013-03-24 14:10:00,
2013-03-24 10:40:00,39.3,37.7,29.46,SE,135,9.0,20.0,94,0.03,,,-99.99,WeatherLink 5.6,2013-03-24 14:40:00,
2013-03-24 11:10:00,39.4,37.5,29.45,SE,135,8.0,20.0,93,0.02,,,-99.99,WeatherLink 5.6,2013-03-24 15:10:00,
2013-03-24 11:40:00,39.3,37.4,29.47,SSE,157,7.0,18.0,93,0.02,,,-99.99,WeatherLink 5.6,2013-03-24 15:40:00,
2013-03-24 12:11:00,39.3,37.7,29.47,SSE,157,5.0,13.0,94,0.02,,,-99.99,WeatherLink 5.6,2013-03-24 16:11:00,
2013-03-24 12:30:00,39.3,37.7,29.47,SSE,157,5.0,13.0,94,0.02,,,-99.99,WeatherLink 5.6,2013-03-24 16:30:00,
2013-03-24 12:40:00,39.3,37.7,29.44,SSE,157,5.0,19.0,94,0.04,,,-99.99,WeatherLink 5.6,2013-03-24 16:40:00,
2013-03-24 13:10:00,39.1,37.5,29.44,SSE,157,6.0,19.0,94,0.05,,,-99.99,WeatherLink 5.6,2013-03-24 17:10:00,
2013-03-24 13:40:00,39.3,37.7,29.42,SSE,157,6.0,24.0,94,0.03,,,-99.99,WeatherLink 5.6,2013-03-24 17:40:00,
2013-03-24 14:10:00,39.9,38.3,29.40,SSE,157,5.0,20.0,94,0.02,,,-99.99,WeatherLink 5.6,2013-03-24 18:10:00,
2013-03-24 14:40:00,40.3,38.7,29.38,SSE,157,6.0,22.0,94,0.01,,,-99.99,WeatherLink 5.6,2013-03-24 18:40:00,
2013-03-24 15:10:00,40.5,38.9,29.36,South,180,6.0,22.0,94,0.00,,,-99.99,WeatherLink 5.6,2013-03-24 19:10:00,
2013-03-24 15:40:00,40.1,38.5,29.36,South,180,7.0,20.0,94,0.00,,,-99.99,WeatherLink 5.6,2013-03-24 19:40:00,
2013-03-24 16:10:00,42.0,40.1,29.31,SSE,157,5.0,16.0,93,0.00,,,-99.99,WeatherLink 5.6,2013-03-24 20:10:00,
2013-03-24 16:40:00,43.3,40.8,29.29,SSE,157,5.0,20.0,91,0.00,,,-99.99,WeatherLink 5.6,2013-03-24 20:40:00,
2013-03-24 17:10:00,43.5,40.8,29.28,SSE,157,5.0,17.0,90,0.00,,,-99.99,WeatherLink 5.6,2013-03-24 21:10:00,
2013-03-24 17:40:00,43.3,40.6,29.26,SSE,157,6.0,16.0,90,0.00,,,-99.99,WeatherLink 5.6,2013-03-24 21:40:00,
2013-03-24 18:10:00,43.9,40.9,29.26,SSE,157,3.0,10.0,89,0.00,,,-99.99,WeatherLink 5.6,2013-03-24 22:10:00,
2013-03-24 18:40:00,43.5,40.8,29.27,SSE,157,4.0,15.0,90,0.00,,,-99.99,WeatherLink 5.6,2013-03-24 22:40:00,
2013-03-24 19:10:00,43.2,39.9,29.27,SSE,157,10.0,19.0,88,0.00,,,-99.99,WeatherLink 5.6,2013-03-24 23:10:00,
2013-03-24 19:40:00,42.2,39.2,29.23,SE,135,12.0,25.0,89,0.02,,,-99.99,WeatherLink 5.6,2013-03-24 23:40:00,
2013-03-24 20:10:00,41.6,38.9,29.24,SE,135,11.0,28.0,90,0.02,,,-99.99,WeatherLink 5.6,2013-03-25 00:10:00,
2013-03-24 20:40:00,40.9,38.5,29.26,SSE,157,9.0,21.0,91,0.03,,,-99.99,WeatherLink 5.6,2013-03-25 00:40:00,
2013-03-24 21:10:00,40.1,38.2,29.32,SSE,157,5.0,16.0,93,0.11,,,-99.99,WeatherLink 5.6,2013-03-25 01:10:00,
2013-03-24 22:30:00,39.3,37.4,29.35,West,270,7.0,20.0,93,0.18,,,-99.99,WeatherLink 5.6,2013-03-25 02:30:00,
2013-03-24 23:00:00,38.1,36.0,29.37,WNW,292,10.0,21.0,92,0.16,,,-99.99,WeatherLink 5.6,2013-03-25 03:00:00,
2013-03-24 23:30:00,37.7,35.6,29.36,West,270,3.0,14.0,92,0.07,,,-99.99,WeatherLink 5.6,2013-03-25 03:30:00,